Time;durP1;ratioP1;P1;durP2;ratioP2;P2;SDS_P1;SDS_P2;PMS_P1;PMS_P2;Temp;Humidity;BMP_temperature;BMP_pressure;BME280_temperature;BME280_humidity;BME280_pressure;Samples;Min_cycle;Max_cycle;Signal;HPM_P1;HPM_P2
2023/03/16 00:00:48;;;;;;;40.03;15.33;;;2.30;99.90;;;5.72;54.52;97974.81;5031083;28;20048;-44
2023/03/16 00:03:19;;;;;;;15.77;10.87;;;2.20;99.90;;;5.69;54.58;97980.34;5031018;28;20505;-46
2023/03/16 00:05:52;;;;;;;22.47;13.07;;;2.20;99.90;;;5.65;54.18;97982.38;5031048;28;20516;-44
2023/03/16 00:08:19;;;;;;;37.07;22.10;;;2.20;99.90;;;5.61;54.51;97978.31;5029476;28;20052;-43
2023/03/16 00:10:47;;;;;;;33.10;20.57;;;2.10;99.90;;;5.58;54.45;97977.69;5029936;28;20421;-46
2023/03/16 00:13:18;;;;;;;22.93;15.33;;;2.10;99.90;;;5.55;53.95;97975.31;5030940;28;20049;-43
2023/03/16 00:15:58;;;;;;;19.17;13.90;;;2.10;99.90;;;5.52;53.98;97976.38;5029956;28;20041;-44
2023/03/16 00:18:28;;;;;;;17.63;13.23;;;2.00;99.90;;;5.48;54.12;97978.44;5023064;28;20042;-50
2023/03/16 00:21:01;;;;;;;14.90;9.97;;;2.00;99.90;;;5.43;53.97;97970.03;5029795;28;20057;-43
2023/03/16 00:23:34;;;;;;;14.20;10.48;;;2.00;99.90;;;5.40;54.11;97972.09;5023631;28;20044;-44
2023/03/16 00:26:16;;;;;;;13.33;9.27;;;1.90;99.90;;;5.35;54.08;97968.97;5031058;28;20045;-45
2023/03/16 00:28:44;;;;;;;10.77;7.80;;;1.90;99.90;;;5.32;54.23;97975.31;5028992;28;20049;-45
2023/03/16 00:31:12;;;;;;;10.07;7.70;;;1.80;99.90;;;5.27;54.24;97972.19;5037700;28;20389;-43
2023/03/16 00:33:41;;;;;;;15.80;10.40;;;1.80;99.90;;;5.23;53.70;97976.88;5030982;28;20412;-47
2023/03/16 00:36:10;;;;;;;16.00;12.13;;;1.80;99.90;;;5.22;53.87;97977.00;5038095;28;20051;-47
2023/03/16 00:38:44;;;;;;;20.77;12.20;;;1.80;99.90;;;5.18;54.36;97979.03;5030412;28;20052;-45
2023/03/16 00:41:14;;;;;;;19.23;12.27;;;1.80;99.90;;;5.18;54.67;97979.03;5013923;28;20053;-45
2023/03/16 00:43:44;;;;;;;19.70;12.63;;;1.80;99.90;;;5.18;54.43;97986.13;5029722;28;20042;-47
2023/03/16 00:46:15;;;;;;;17.90;10.33;;;1.70;99.90;;;5.15;54.41;97981.06;5029681;28;20049;-46
2023/03/16 00:48:45;;;;;;;19.70;12.00;;;1.70;99.90;;;5.12;54.26;97980.34;5012875;28;20041;-48
2023/03/16 00:51:16;;;;;;;19.13;10.70;;;1.70;99.90;;;5.10;53.59;97978.81;5030560;28;20417;-45
2023/03/16 00:53:45;;;;;;;12.37;9.23;;;1.70;99.90;;;5.08;54.11;97978.09;5028895;28;20053;-43
2023/03/16 00:56:14;;;;;;;15.60;10.43;;;1.70;99.90;;;5.05;54.20;97973.03;5030596;28;20037;-44
2023/03/16 00:58:42;;;;;;;21.83;12.87;;;1.70;99.90;;;5.02;53.85;97982.03;5029131;28;20418;-45
2023/03/16 01:01:17;;;;;;;17.23;9.77;;;1.60;99.90;;;5.01;53.58;97975.06;5031285;28;20056;-45
2023/03/16 01:03:45;;;;;;;16.27;9.70;;;1.70;99.90;;;5.02;54.35;97967.97;5013453;28;20052;-44
2023/03/16 01:06:16;;;;;;;13.33;8.50;;;1.70;99.90;;;5.02;54.48;97962.69;5028852;28;20049;-45
2023/03/16 01:08:44;;;;;;;10.73;7.40;;;1.70;99.90;;;5.01;53.55;97964.50;5030369;28;20037;-45
2023/03/16 01:11:17;;;;;;;13.63;9.80;;;1.60;99.90;;;5.01;54.10;97964.50;5030410;28;20053;-43
2023/03/16 01:13:48;;;;;;;15.88;11.13;;;1.60;99.90;;;5.01;54.01;97964.50;5034161;28;20038;-48
2023/03/16 01:16:22;;;;;;;15.10;10.27;;;1.60;99.90;;;4.99;54.44;97962.97;5034215;28;20042;-45
2023/03/16 01:18:51;;;;;;;;;;;1.60;99.90;;;4.90;54.48;97962.72;5032930;28;20041;-48
2023/03/16 01:21:20;;;;;;;11.90;7.73;;;1.50;99.90;;;4.99;54.15;97961.16;5032277;28;19921;-47
2023/03/16 01:23:49;;;;;;;13.17;8.73;;;1.50;99.90;;;4.97;53.67;97951.69;5032634;28;20433;-44
2023/03/16 01:26:19;;;;;;;12.90;8.83;;;1.50;99.90;;;4.95;54.11;97948.31;5016274;28;20056;-43
2023/03/16 01:28:48;;;;;;;12.43;8.90;;;1.50;99.90;;;4.92;54.34;97946.75;5032297;28;20424;-46
2023/03/16 01:31:15;;;;;;;15.20;9.60;;;1.50;99.90;;;4.91;53.89;97951.19;5032135;28;20049;-47
2023/03/16 01:33:43;;;;;;;11.93;8.00;;;1.50;99.90;;;4.88;54.03;97946.13;5033764;28;20044;-47
2023/03/16 01:36:17;;;;;;;14.40;9.70;;;1.40;99.90;;;4.90;54.30;97946.03;5032372;28;20508;-44
2023/03/16 01:38:59;;;;;;;16.17;10.63;;;1.40;99.90;;;4.88;53.87;97946.13;5032080;28;20410;-46
2023/03/16 01:41:30;;;;;;;15.13;10.17;;;1.40;99.90;;;4.83;54.36;97942.19;5024726;28;20045;-48
2023/03/16 01:43:58;;;;;;;15.83;9.33;;;1.40;99.90;;;4.79;54.61;97940.72;5032706;28;20060;-46
2023/03/16 01:46:28;;;;;;;15.03;10.17;;;1.30;99.90;;;4.77;55.07;97940.00;5031973;28;20045;-43
2023/03/16 01:49:32;;;;;;;12.87;9.30;;;1.40;99.90;;;4.69;54.83;97936.19;5023840;28;20412;-46
2023/03/16 01:52:11;;;;;;;17.33;10.85;;;1.40;99.90;;;4.77;54.79;97935.59;5034461;28;20049;-44
2023/03/16 01:54:49;;;;;;;19.33;11.53;;;1.40;99.90;;;4.82;54.98;97929.94;5042022;28;20409;-44
2023/03/16 01:57:29;;;;;;;21.83;13.73;;;1.50;99.90;;;4.84;54.54;97931.50;5029390;28;20045;-44
2023/03/16 02:00:19;;;;;;;20.97;13.83;;;1.50;99.90;;;4.81;54.61;97929.13;5025203;28;20041;-45
2023/03/16 02:03:06;;;;;;;15.57;10.40;;;1.50;99.90;;;4.82;54.79;97922.88;5039971;28;20053;-44
2023/03/16 02:06:05;;;;;;;16.80;10.30;;;1.40;99.90;;;4.82;54.94;97922.03;5031784;28;20440;-47
2023/03/16 02:08:37;;;;;;;14.93;10.50;;;1.50;99.90;;;4.86;55.02;97920.84;5024320;28;20068;-47
2023/03/16 02:11:07;;;;;;;14.53;9.53;;;1.50;99.90;;;4.85;55.10;97914.72;5031933;28;20049;-48
2023/03/16 02:13:45;;;;;;;18.77;10.27;;;1.50;99.90;;;4.85;55.35;97917.38;5016424;28;20042;-49
2023/03/16 02:16:18;;;;;;;16.10;10.07;;;1.50;99.90;;;4.88;55.35;97922.38;5032057;28;20053;-50
2023/03/16 02:18:47;;;;;;;16.33;10.20;;;1.50;99.90;;;4.93;55.74;97919.41;5023721;28;20042;-50
2023/03/16 02:21:36;;;;;;;14.27;9.77;;;1.60;99.90;;;4.97;55.46;97923.50;5023347;28;20045;-47
2023/03/16 02:24:05;;;;;;;13.63;9.93;;;1.70;99.90;;;4.99;55.81;97920.75;5031910;28;20041;-50
2023/03/16 02:26:58;;;;;;;15.80;9.83;;;1.70;99.90;;;4.98;55.70;97925.16;5031843;28;20042;-47
2023/03/16 02:29:58;;;;;;;13.27;8.60;;;1.70;99.90;;;5.01;55.32;97926.72;5031115;28;20056;-50
2023/03/16 02:32:31;;;;;;;11.37;8.27;;;1.80;99.90;;;5.05;55.49;97925.53;5030915;28;20531;-51
2023/03/16 02:35:01;;;;;;;13.13;8.63;;;1.80;99.90;;;5.06;55.61;97920.13;5015785;28;20119;-46
2023/03/16 02:37:29;;;;;;;14.10;9.43;;;1.80;99.90;;;5.06;55.48;97914.88;5031449;28;20371;-49
2023/03/16 02:39:56;;;;;;;12.40;8.67;;;1.80;99.90;;;5.06;55.57;97920.13;5014804;28;20398;-48
2023/03/16 02:42:27;;;;;;;13.07;8.87;;;1.80;99.90;;;5.06;55.18;97908.72;5031234;28;20049;-50
2023/03/16 02:44:59;;;;;;;13.70;9.27;;;1.70;99.90;;;5.08;55.77;97909.47;5031135;28;20389;-49
2023/03/16 02:47:40;;;;;;;15.25;9.25;;;1.70;99.90;;;5.07;55.71;97899.84;5014971;28;20424;-47
2023/03/16 02:50:11;;;;;;;14.93;9.00;;;1.70;99.90;;;5.10;55.30;97905.75;5031389;28;20071;-47
2023/03/16 02:52:39;;;;;;;14.43;8.67;;;1.70;99.90;;;5.11;55.45;97896.00;5031907;28;20042;-48
2023/03/16 02:55:08;;;;;;;13.17;9.80;;;1.70;99.90;;;5.05;54.93;97899.97;5030309;28;20433;-50
2023/03/16 02:57:35;;;;;;;13.07;9.57;;;1.70;99.90;;;5.07;55.48;97899.84;5030528;28;20037;-47
2023/03/16 03:00:17;;;;;;;13.85;8.85;;;1.70;99.90;;;5.09;55.49;97897.94;5031129;28;20056;-51
2023/03/16 03:02:48;;;;;;;15.00;9.70;;;1.70;99.90;;;5.11;54.71;97901.28;5031056;28;20139;-47
2023/03/16 03:05:16;;;;;;;16.73;8.97;;;1.70;99.90;;;5.08;55.38;97897.09;5031948;28;20099;-47
2023/03/16 03:07:43;;;;;;;14.83;9.67;;;1.70;99.90;;;5.05;54.87;97894.69;5029989;28;20045;-50
2023/03/16 03:10:12;;;;;;;16.03;9.47;;;1.70;99.90;;;5.04;54.83;97900.09;5030483;28;20054;-48
2023/03/16 03:12:40;;;;;;;13.77;9.40;;;1.60;99.90;;;5.00;54.99;97910.06;5030892;28;20042;-47
2023/03/16 03:15:10;;;;;;;14.10;8.77;;;1.60;99.90;;;4.96;54.72;97907.75;5031762;28;20044;-50
2023/03/16 03:17:46;;;;;;;13.53;9.03;;;1.60;99.90;;;4.95;55.10;97904.31;5030085;28;20049;-52
2023/03/16 03:20:15;;;;;;;12.73;8.23;;;1.50;99.90;;;4.92;55.23;97899.25;5030077;28;20490;-45
2023/03/16 03:22:48;;;;;;;14.63;9.57;;;1.50;99.90;;;4.89;55.52;97884.50;5031627;28;20045;-48
2023/03/16 03:25:17;;;;;;;15.00;8.30;;;1.40;99.90;;;4.88;54.89;97882.81;5031080;28;20049;-50
2023/03/16 03:27:47;;;;;;;14.87;8.00;;;1.40;99.90;;;4.87;54.54;97880.31;5013862;28;20042;-50
2023/03/16 03:30:21;;;;;;;12.27;9.37;;;1.40;99.90;;;4.84;54.53;97880.53;5014093;28;20057;-50
2023/03/16 03:32:48;;;;;;;13.43;8.63;;;1.40;99.90;;;4.84;54.62;97877.91;5030400;28;20042;-47
2023/03/16 03:35:20;;;;;;;12.37;7.73;;;1.40;99.90;;;4.84;54.97;97872.63;5029813;28;20045;-46
2023/03/16 03:37:48;;;;;;;14.10;9.40;;;1.40;99.90;;;4.84;54.84;97880.53;5029950;28;20048;-47
2023/03/16 03:40:18;;;;;;;11.27;8.17;;;1.40;99.90;;;4.83;54.57;97874.44;5029681;28;20263;-47
2023/03/16 03:42:50;;;;;;;11.00;8.07;;;1.40;99.90;;;4.86;54.72;97882.09;5029978;28;20049;-48
2023/03/16 03:45:18;;;;;;;13.00;9.13;;;1.50;99.90;;;4.86;54.64;97876.81;5029938;28;20045;-47
2023/03/16 03:47:45;;;;;;;10.17;7.97;;;1.50;99.90;;;4.84;55.27;97868.19;5029303;28;20041;-45
2023/03/16 03:50:18;;;;;;;13.87;9.27;;;1.50;99.90;;;4.83;54.68;97863.88;5029880;28;20559;-47
2023/03/16 03:53:08;;;;;;;11.33;9.00;;;1.50;99.90;;;4.83;55.06;97868.34;5030750;28;20528;-45
2023/03/16 03:55:51;;;;;;;13.93;9.03;;;1.40;99.90;;;4.83;55.43;97877.06;5023925;28;20056;-48
2023/03/16 03:58:19;;;;;;;15.73;9.30;;;1.40;99.90;;;4.83;54.75;97870.97;5029872;28;20041;-47
2023/03/16 04:00:46;;;;;;;13.00;9.17;;;1.40;99.90;;;4.80;55.00;97868.56;5038116;28;20041;-49
2023/03/16 04:03:15;;;;;;;14.53;9.17;;;1.50;99.90;;;4.81;54.96;97875.50;5028540;28;20062;-45
2023/03/16 04:05:44;;;;;;;16.83;9.50;;;1.50;99.90;;;4.81;54.93;97865.81;5029618;28;20496;-45
2023/03/16 04:08:12;;;;;;;13.97;9.10;;;1.50;99.90;;;4.83;54.66;97866.53;5029605;28;20068;-51
2023/03/16 04:10:40;;;;;;;14.70;8.73;;;1.60;99.90;;;4.84;55.17;97867.34;5029758;28;20050;-47
2023/03/16 04:13:07;;;;;;;12.60;8.50;;;1.60;99.90;;;4.82;54.75;97869.28;5031108;28;20420;-45
2023/03/16 04:15:37;;;;;;;14.00;8.67;;;1.60;99.90;;;4.82;55.61;97870.09;5029255;28;20052;-48
2023/03/16 04:18:16;;;;;;;13.03;8.77;;;1.50;99.90;;;4.83;54.94;97871.81;5029700;28;20052;-45
2023/03/16 04:20:44;;;;;;;12.37;8.43;;;1.50;99.90;;;4.83;55.07;97861.25;5029564;28;20045;-47
2023/03/16 04:23:16;;;;;;;12.87;9.37;;;1.50;99.90;;;4.87;54.57;97859.22;5029134;28;20053;-45
2023/03/16 04:25:47;;;;;;;15.97;9.33;;;1.50;99.90;;;4.87;54.62;97860.03;5030126;28;20053;-48
2023/03/16 04:28:17;;;;;;;13.57;8.30;;;1.50;99.90;;;4.89;55.23;97862.56;5029639;28;20421;-47
2023/03/16 04:30:49;;;;;;;14.80;8.73;;;1.50;99.90;;;4.89;54.51;97852.84;5029973;28;20041;-51
2023/03/16 04:33:22;;;;;;;11.85;8.80;;;1.60;99.90;;;4.90;54.40;97856.31;5028518;28;20513;-45
2023/03/16 04:35:51;;;;;;;11.27;7.87;;;1.50;99.90;;;4.88;55.19;97853.78;5029708;28;20512;-46
2023/03/16 04:38:21;;;;;;;15.03;9.63;;;1.50;99.90;;;4.88;54.96;97863.50;5029538;28;20041;-48
2023/03/16 04:40:55;;;;;;;16.63;9.77;;;1.50;99.90;;;4.87;54.66;97859.22;5029515;28;20048;-49
2023/03/16 04:43:26;;;;;;;16.20;9.37;;;1.50;99.90;;;4.86;54.90;97857.53;5028879;28;20348;-45
2023/03/16 04:46:02;;;;;;;15.05;10.18;;;1.40;99.90;;;4.87;55.20;97859.22;5032118;28;20052;-45
2023/03/16 04:48:31;;;;;;;12.67;9.00;;;1.50;99.90;;;4.86;54.62;97858.34;5033205;28;20045;-49
2023/03/16 04:51:00;;;;;;;14.97;9.67;;;1.50;99.90;;;4.87;54.82;97848.66;5033178;28;20049;-46
2023/03/16 04:53:31;;;;;;;11.93;8.47;;;1.50;99.90;;;4.85;54.16;97856.69;5032607;28;20417;-48
2023/03/16 04:56:02;;;;;;;13.87;8.60;;;1.50;99.90;;;4.82;54.54;97853.44;5033476;28;20045;-49
2023/03/16 04:58:31;;;;;;;12.33;8.53;;;1.40;99.90;;;4.82;54.53;97856.09;5028468;28;20049;-46
2023/03/16 05:01:01;;;;;;;14.97;9.03;;;1.40;99.90;;;4.77;54.47;97848.53;5032983;28;20570;-45
2023/03/16 05:03:33;;;;;;;12.17;8.87;;;1.30;99.90;;;4.77;54.16;97852.97;5032703;28;20045;-48
2023/03/16 05:06:04;;;;;;;16.70;9.50;;;1.30;99.90;;;4.73;54.31;97855.03;5033213;28;20050;-47
2023/03/16 05:08:33;;;;;;;13.57;9.43;;;1.30;99.90;;;4.72;55.19;97851.53;5032409;28;20421;-49
2023/03/16 05:11:01;;;;;;;12.77;9.60;;;1.30;99.90;;;4.73;54.66;97847.94;5032331;28;20063;-46
2023/03/16 05:13:35;;;;;;;15.05;8.68;;;1.30;99.90;;;4.75;54.69;97850.47;5032633;28;20050;-50
2023/03/16 05:16:04;;;;;;;17.30;9.53;;;1.30;99.90;;;4.73;54.86;97850.56;5032943;28;20417;-47
2023/03/16 05:18:36;;;;;;;13.97;10.23;;;1.30;99.90;;;4.74;54.55;97846.13;5032082;28;20049;-45
2023/03/16 05:21:04;;;;;;;15.03;9.93;;;1.30;99.90;;;4.74;54.73;97846.97;5016086;28;20528;-47
2023/03/16 05:23:44;;;;;;;18.27;10.70;;;1.30;99.90;;;4.74;54.62;97839.03;5025454;28;20056;-47
2023/03/16 05:26:12;;;;;;;42.37;20.30;;;1.30;99.90;;;4.77;54.52;97848.53;5032692;28;20049;-47
2023/03/16 05:28:41;;;;;;;27.03;15.53;;;1.40;99.90;;;4.76;54.18;97849.50;5032292;28;20045;-45
2023/03/16 05:31:12;;;;;;;20.60;12.23;;;1.30;99.90;;;4.78;54.64;97850.19;5032517;28;20076;-45
2023/03/16 05:33:44;;;;;;;18.73;12.57;;;1.30;99.90;;;4.81;54.76;97849.13;5029301;28;20046;-47
2023/03/16 05:36:16;;;;;;;33.40;17.33;;;1.40;99.90;;;4.84;54.91;97851.53;5029461;28;20505;-47
2023/03/16 05:38:47;;;;;;;19.23;12.30;;;1.40;99.90;;;4.83;54.79;97845.41;5039960;28;20046;-47
2023/03/16 05:41:25;;;;;;;18.57;11.10;;;1.40;99.90;;;4.85;54.21;97840.03;5032217;28;20062;-47
2023/03/16 05:43:52;;;;;;;21.67;12.40;;;1.50;99.90;;;4.87;55.01;97836.31;5033733;28;20061;-45
2023/03/16 05:46:23;;;;;;;15.53;10.83;;;1.50;99.90;;;4.87;54.98;97831.03;5032535;28;20050;-48
2023/03/16 05:48:52;;;;;;;14.90;11.10;;;1.50;99.90;;;4.88;54.61;97832.69;5039874;28;20057;-45
2023/03/16 05:51:21;;;;;;;18.67;11.30;;;1.60;99.90;;;4.87;55.20;97833.66;5032363;28;20051;-47
2023/03/16 05:53:48;;;;;;;16.53;10.67;;;1.50;99.90;;;4.86;54.56;97828.50;5040008;28;20053;-50
2023/03/16 05:56:27;;;;;;;18.07;11.13;;;1.50;99.90;;;4.85;54.72;97834.75;5031756;28;20052;-47
2023/03/16 05:58:56;;;;;;;17.00;12.10;;;1.40;99.90;;;4.83;54.87;97831.41;5031693;28;20046;-45
2023/03/16 06:01:25;;;;;;;16.27;10.00;;;1.40;99.90;;;4.82;54.92;97832.34;5031696;28;20052;-47
2023/03/16 06:03:53;;;;;;;21.73;13.03;;;1.50;99.90;;;4.83;54.89;97834.88;5015215;28;20061;-50
2023/03/16 06:06:25;;;;;;;32.87;19.53;;;1.50;99.90;;;4.82;54.66;97837.63;5031968;28;20362;-48
2023/03/16 06:09:05;;;;;;;15.27;10.60;;;1.50;99.90;;;4.83;54.32;97831.41;5031691;28;20050;-46
2023/03/16 06:11:33;;;;;;;15.73;10.90;;;1.50;99.90;;;4.84;54.81;97833.88;5031709;28;20053;-47
2023/03/16 06:14:01;;;;;;;15.87;9.53;;;1.50;99.90;;;4.82;54.40;97835.81;5039829;28;20053;-47
2023/03/16 06:16:29;;;;;;;15.80;9.97;;;1.40;99.90;;;4.81;54.83;97823.59;5031849;28;20053;-47
2023/03/16 06:18:56;;;;;;;17.60;10.00;;;1.50;99.90;;;4.81;54.87;97830.66;5031638;28;20069;-45
2023/03/16 06:21:27;;;;;;;15.60;9.07;;;1.50;99.90;;;4.83;54.92;97832.22;5031566;28;20045;-48
2023/03/16 06:24:01;;;;;;;14.10;9.05;;;1.50;99.90;;;4.82;54.21;97830.53;5031929;28;20057;-47
2023/03/16 06:26:29;;;;;;;15.77;9.30;;;1.40;99.90;;;4.81;55.02;97836.78;5030730;28;20060;-51
2023/03/16 06:28:57;;;;;;;16.30;10.77;;;1.50;99.90;;;4.84;54.06;97840.97;5015381;28;20520;-46
2023/03/16 06:31:25;;;;;;;15.67;9.87;;;1.40;99.90;;;4.83;54.61;97840.16;5032534;28;20524;-48
2023/03/16 06:33:53;;;;;;;14.87;11.17;;;1.40;99.90;;;4.85;54.17;97840.03;5031312;28;20054;-48
2023/03/16 06:36:21;;;;;;;16.53;12.60;;;1.40;99.90;;;4.86;54.58;97845.16;5031154;28;20060;-48
2023/03/16 06:38:53;;;;;;;16.00;12.53;;;1.40;99.90;;;4.88;54.58;97845.03;5030493;28;20574;-48
2023/03/16 06:41:28;;;;;;;19.63;13.30;;;1.40;99.90;;;4.89;54.44;97842.28;5030517;28;20199;-47
2023/03/16 06:43:56;;;;;;;17.40;12.77;;;1.40;99.90;;;4.89;54.78;97844.94;5014837;28;20050;-51
2023/03/16 06:46:23;;;;;;;17.40;10.50;;;1.40;99.90;;;4.94;54.65;97841.91;5022678;28;20048;-45
2023/03/16 06:48:52;;;;;;;16.77;11.23;;;1.50;99.90;;;4.96;54.59;97839.16;5038724;28;20048;-45
2023/03/16 06:51:19;;;;;;;18.67;10.93;;;1.60;99.90;;;5.01;54.95;97842.28;5030984;28;20064;-45
2023/03/16 06:53:49;;;;;;;18.27;10.50;;;1.70;99.90;;;5.02;54.95;97838.69;5031881;28;20429;-46
2023/03/16 06:56:17;;;;;;;13.43;10.10;;;1.70;99.90;;;5.04;54.38;97836.75;5030889;28;20120;-45
2023/03/16 06:58:46;;;;;;;15.47;10.37;;;1.80;99.90;;;5.09;55.01;97842.50;5022463;28;20524;-50
2023/03/16 07:01:14;;;;;;;18.63;11.37;;;1.80;99.90;;;5.11;54.88;97851.16;5030571;28;20045;-44
2023/03/16 07:03:42;;;;;;;14.10;10.17;;;1.80;99.90;;;5.17;55.06;97855.94;5030139;28;20056;-46
2023/03/16 07:06:19;;;;;;;19.07;10.07;;;1.80;99.90;;;5.20;55.01;97853.06;5030788;28;20074;-46
2023/03/16 07:08:47;;;;;;;17.10;10.13;;;1.90;99.90;;;5.22;54.74;97850.31;5029904;28;20421;-45
2023/03/16 07:11:15;;;;;;;15.60;9.53;;;1.90;99.90;;;5.22;54.18;97851.13;5030520;28;20042;-47
2023/03/16 07:13:43;;;;;;;14.77;9.60;;;1.90;99.90;;;5.27;54.29;97850.75;5031789;28;20041;-47
2023/03/16 07:16:11;;;;;;;18.97;11.17;;;1.90;99.90;;;5.29;54.67;97848.84;5030126;28;20052;-46
2023/03/16 07:18:43;;;;;;;16.23;9.67;;;2.00;99.90;;;5.30;54.21;97848.72;5031441;28;20053;-47
2023/03/16 07:21:13;;;;;;;16.90;9.97;;;2.00;99.90;;;5.34;54.85;97849.31;5030183;28;20052;-48
2023/03/16 07:23:40;;;;;;;13.60;9.90;;;2.00;99.90;;;5.37;54.28;97853.50;5029826;28;20045;-45
2023/03/16 07:26:10;;;;;;;16.97;11.30;;;2.00;99.90;;;5.39;54.84;97851.56;5030809;28;20049;-49
2023/03/16 07:28:47;;;;;;;15.30;10.73;;;2.00;99.90;;;5.41;54.84;97852.28;5029997;28;20045;-51
2023/03/16 07:31:16;;;;;;;16.83;10.90;;;2.00;99.90;;;5.42;54.17;97849.53;5030592;28;20587;-47
2023/03/16 07:33:44;;;;;;;16.33;10.83;;;2.10;99.90;;;5.46;54.63;97850.13;5030119;28;20050;-47
2023/03/16 07:36:17;;;;;;;14.90;10.23;;;2.10;99.90;;;5.53;55.14;97853.97;5030112;28;20045;-44
2023/03/16 07:38:53;;;;;;;19.73;10.50;;;2.20;99.90;;;5.58;54.86;97851.75;5030072;28;20060;-45
2023/03/16 07:41:21;;;;;;;16.10;10.53;;;2.30;99.90;;;5.63;55.02;97860.16;5030017;28;20061;-47
2023/03/16 07:43:48;;;;;;;16.77;10.60;;;2.30;99.90;;;5.68;54.75;97860.63;5032393;28;20048;-46
2023/03/16 07:46:16;;;;;;;14.83;9.57;;;2.30;99.90;;;5.69;54.80;97866.75;5031078;28;20064;-49
2023/03/16 07:48:44;;;;;;;17.33;10.13;;;2.40;99.90;;;5.75;54.57;97862.78;5013181;28;20057;-49
2023/03/16 07:51:13;;;;;;;16.27;10.73;;;2.40;99.90;;;5.79;55.24;97861.56;5033770;28;20085;-47
2023/03/16 07:53:44;;;;;;;15.77;10.53;;;2.40;99.90;;;5.82;54.41;97859.50;5038040;28;20521;-46
2023/03/16 07:56:23;;;;;;;15.93;11.07;;;2.40;99.90;;;5.85;54.70;97864.50;5030800;28;20068;-47
2023/03/16 07:58:54;;;;;;;17.03;10.00;;;2.50;99.90;;;5.89;54.21;97863.31;5025914;28;20208;-44
2023/03/16 08:01:23;;;;;;;15.77;10.07;;;2.50;99.90;;;5.96;54.48;97863.66;5029679;28;20061;-47
2023/03/16 08:03:50;;;;;;;16.40;10.80;;;2.60;99.90;;;6.01;53.98;97858.84;5013965;28;20044;-50
2023/03/16 08:06:20;;;;;;;19.03;9.67;;;2.70;99.90;;;6.03;54.19;97866.63;5031284;28;20048;-44
2023/03/16 08:08:47;;;;;;;15.83;10.17;;;2.70;99.90;;;6.06;54.16;97864.59;5029431;28;20421;-46
2023/03/16 08:11:23;;;;;;;17.23;10.80;;;2.80;99.90;;;6.08;54.19;97849.44;5031158;28;20050;-48
2023/03/16 08:14:03;;;;;;;17.20;10.63;;;2.80;99.90;;;6.11;54.28;97865.03;5031975;28;20057;-45
2023/03/16 08:16:49;;;;;;;15.93;10.30;;;2.90;99.90;;;6.17;54.11;97858.41;5007400;28;20037;-46
2023/03/16 08:19:19;;;;;;;15.77;10.47;;;2.90;99.90;;;6.23;54.17;97862.34;5030135;28;20081;-49
2023/03/16 08:21:48;;;;;;;14.77;9.27;;;2.90;99.90;;;6.30;54.37;97866.13;5041540;28;20041;-50
2023/03/16 08:24:32;;;;;;;;;;;3.00;99.90;;;6.34;55.05;97859.66;5033659;28;20048;-46
2023/03/16 08:27:02;;;;;;;16.17;9.17;;;3.10;99.90;;;6.45;54.31;97848.16;5033442;28;19921;-49
2023/03/16 08:29:33;;;;;;;17.57;10.23;;;3.10;99.90;;;6.47;54.52;97846.22;5033104;28;20080;-48
2023/03/16 08:32:02;;;;;;;22.50;10.40;;;3.20;99.90;;;6.50;54.59;97838.84;5026474;28;20053;-46
2023/03/16 08:34:38;;;;;;;16.87;10.53;;;3.30;99.90;;;6.50;54.14;97833.56;5034904;28;20405;-48
2023/03/16 08:37:06;;;;;;;15.13;9.83;;;3.40;99.90;;;6.54;54.45;97830.66;5033133;28;20050;-49
2023/03/16 08:39:34;;;;;;;16.83;10.20;;;3.40;99.90;;;6.59;54.59;97825.81;5033160;28;20049;-46
2023/03/16 08:42:06;;;;;;;14.20;10.13;;;3.40;99.90;;;6.68;54.44;97831.13;5026185;28;20056;-45
2023/03/16 08:44:41;;;;;;;14.73;10.23;;;3.50;99.90;;;6.72;53.90;97834.38;5021762;28;20053;-48
2023/03/16 08:47:10;;;;;;;16.47;9.53;;;3.50;99.90;;;6.77;54.45;97829.53;5027713;28;20042;-47
2023/03/16 08:49:41;;;;;;;17.17;11.20;;;3.60;99.90;;;6.86;53.89;97814.63;5044101;28;20398;-48
2023/03/16 08:52:12;;;;;;;12.53;8.73;;;3.70;99.90;;;6.92;54.19;97822.06;5028930;28;20045;-45
2023/03/16 08:54:40;;;;;;;14.63;9.63;;;3.80;99.90;;;6.97;54.54;97824.31;5044581;28;20046;-52
2023/03/16 08:57:20;;;;;;;16.67;9.10;;;3.80;99.90;;;7.02;54.16;97828.22;5028432;28;20046;-46
2023/03/16 08:59:47;;;;;;;16.63;9.40;;;3.90;99.90;;;7.09;53.83;97831.16;5044215;28;20432;-46
2023/03/16 09:02:15;;;;;;;13.57;9.23;;;3.90;99.90;;;7.16;54.33;97829.66;5027044;28;20056;-48
2023/03/16 09:04:44;;;;;;;12.80;7.80;;;4.00;99.90;;;7.26;54.33;97837.63;5021369;28;20524;-46
2023/03/16 09:07:12;;;;;;;16.23;9.30;;;4.10;99.90;;;7.36;54.19;97837.66;5026307;28;20074;-51
2023/03/16 09:09:40;;;;;;;14.80;8.20;;;4.20;99.90;;;7.44;53.70;97825.41;5040869;28;20045;-50
2023/03/16 09:12:08;;;;;;;13.50;8.63;;;4.30;99.90;;;7.49;53.69;97823.16;5024445;28;20516;-46
2023/03/16 09:14:37;;;;;;;12.40;8.20;;;4.40;99.90;;;7.56;54.03;97806.72;5025376;28;20045;-46
2023/03/16 09:17:06;;;;;;;12.33;7.67;;;4.50;99.90;;;7.65;53.55;97811.19;5027463;28;20490;-49
2023/03/16 09:19:34;;;;;;;10.40;7.37;;;4.50;99.90;;;7.69;53.78;97800.16;5029107;28;20057;-46
2023/03/16 09:22:19;;;;;;;10.85;7.10;;;4.60;99.90;;;7.81;53.75;97802.69;5029293;28;20034;-47
2023/03/16 09:24:48;;;;;;;13.67;7.47;;;4.70;99.90;;;7.88;53.46;97820.53;5038530;28;20065;-50
2023/03/16 09:27:17;;;;;;;12.10;6.67;;;4.80;99.90;;;7.94;53.22;97813.84;5026320;28;20045;-50
2023/03/16 09:29:45;;;;;;;12.83;6.80;;;4.80;99.90;;;8.02;53.12;97819.28;5043283;28;20053;-48
2023/03/16 09:32:13;;;;;;;10.30;6.70;;;4.90;99.90;;;8.08;52.79;97816.09;5027869;28;20053;-47
2023/03/16 09:34:41;;;;;;;11.60;6.50;;;5.00;99.90;;;8.16;52.90;97803.91;5030151;28;20069;-45
2023/03/16 09:37:09;;;;;;;8.30;5.80;;;5.00;99.90;;;8.23;52.61;97803.19;5026975;28;20045;-48
2023/03/16 09:39:37;;;;;;;6.87;5.37;;;5.10;99.90;;;8.32;52.78;97798.00;5043617;28;20041;-46
2023/03/16 09:42:44;;;;;;;12.63;6.17;;;5.20;99.90;;;8.42;52.68;97793.56;5028736;28;20048;-48
2023/03/16 09:45:46;;;;;;;9.33;6.30;;;5.30;99.90;;;8.53;52.45;97796.06;5028898;28;20067;-49
2023/03/16 09:48:16;;;;;;;11.83;5.97;;;5.40;99.90;;;8.61;52.17;97790.84;5027008;28;20736;-47
2023/03/16 09:50:45;;;;;;;9.70;5.57;;;5.50;99.90;;;8.66;52.23;97791.22;5043299;28;20068;-48
2023/03/16 09:53:38;;;;;;;9.10;5.80;;;5.60;99.90;;;8.76;52.31;97785.91;5043289;28;20052;-50
2023/03/16 09:56:30;;;;;;;9.90;5.13;;;5.70;99.90;;;8.90;52.16;97792.56;5028367;28;20048;-48
2023/03/16 09:58:58;;;;;;;9.13;5.27;;;5.80;99.90;;;9.03;51.65;97777.13;5043479;28;20494;-47
2023/03/16 10:02:00;;;;;;;9.90;6.17;;;5.90;99.90;;;9.13;51.47;97776.19;5028308;28;20409;-49
2023/03/16 10:05:05;;;;;;;7.33;4.67;;;6.10;99.90;;;9.26;51.71;97780.16;5026806;28;20053;-50
2023/03/16 10:08:02;;;;;;;8.48;5.15;;;6.20;97.30;;;9.40;51.01;97785.97;5027003;28;20420;-51
2023/03/16 10:11:17;;;;;;;8.40;5.03;;;6.40;93.00;;;9.46;51.58;97796.84;5025966;28;20057;-47
2023/03/16 10:13:55;;;;;;;6.57;4.33;;;6.50;92.70;;;9.60;50.30;97795.47;5025453;28;20080;-51
2023/03/16 10:16:49;;;;;;;9.17;5.03;;;6.50;91.00;;;9.66;50.49;97791.38;5024563;28;20062;-50
2023/03/16 10:19:57;;;;;;;11.43;5.28;;;6.60;90.50;;;9.72;50.50;97784.63;5025183;28;20142;-49
2023/03/16 10:22:33;;;;;;;8.13;4.80;;;6.70;87.80;;;9.78;50.28;97776.03;5027731;28;20049;-45
2023/03/16 10:25:14;;;;;;;5.77;4.37;;;6.70;88.60;;;9.82;50.04;97778.22;5026250;28;20069;-49
2023/03/16 10:27:44;;;;;;;6.20;4.50;;;6.80;86.90;;;9.88;49.85;97765.31;5027031;28;20049;-53
2023/03/16 10:30:27;;;;;;;8.50;4.60;;;6.80;85.80;;;9.91;49.65;97767.69;5027914;28;20045;-48
2023/03/16 10:33:00;;;;;;;7.23;4.10;;;6.80;83.60;;;9.96;49.03;97763.53;5026720;28;20049;-48
2023/03/16 10:35:39;;;;;;;9.60;4.30;;;6.90;83.60;;;10.00;48.95;97764.06;5041973;28;20046;-52
2023/03/16 10:38:23;;;;;;;11.57;4.37;;;6.90;82.60;;;10.02;48.68;97759.44;5040333;28;20045;-46
2023/03/16 10:40:52;;;;;;;6.93;4.43;;;7.00;81.80;;;10.05;48.61;97764.44;5027136;28;20049;-48
2023/03/16 10:43:20;;;;;;;6.70;4.10;;;7.00;82.00;;;10.08;48.69;97739.34;5026722;28;20520;-46
2023/03/16 10:45:48;;;;;;;7.77;4.20;;;7.00;80.30;;;10.07;48.28;97743.84;5027645;28;20046;-49
2023/03/16 10:48:20;;;;;;;5.73;4.10;;;7.10;78.80;;;10.11;48.53;97747.88;5026812;28;20053;-48